sensor_id;sensor_type;location;lat;lon;timestamp;P1;durP1;ratioP1;P2;durP2;ratioP2
23117;SDS011;11728;50.624;6.014;2023-06-10T00:01:56;12.07;;;6.07;;
23117;SDS011;11728;50.624;6.014;2023-06-10T00:07:20;7.50;;;5.93;;
23117;SDS011;11728;50.624;6.014;2023-06-10T00:12:40;8.60;;;6.43;;
23117;SDS011;11728;50.624;6.014;2023-06-10T00:18:02;14.13;;;6.55;;
23117;SDS011;11728;50.624;6.014;2023-06-10T00:23:23;8.02;;;6.30;;
23117;SDS011;11728;50.624;6.014;2023-06-10T00:28:45;8.52;;;5.75;;
23117;SDS011;11728;50.624;6.014;2023-06-10T00:34:06;9.02;;;6.20;;
23117;SDS011;11728;50.624;6.014;2023-06-10T00:39:27;7.35;;;6.35;;
23117;SDS011;11728;50.624;6.014;2023-06-10T00:44:48;8.90;;;6.13;;
23117;SDS011;11728;50.624;6.014;2023-06-10T00:50:09;9.65;;;6.18;;
23117;SDS011;11728;50.624;6.014;2023-06-10T00:55:31;6.85;;;6.15;;
23117;SDS011;11728;50.624;6.014;2023-06-10T01:00:53;10.25;;;6.53;;
23117;SDS011;11728;50.624;6.014;2023-06-10T01:17:31;8.57;;;6.90;;
23117;SDS011;11728;50.624;6.014;2023-06-10T01:22:55;8.52;;;6.00;;
23117;SDS011;11728;50.624;6.014;2023-06-10T01:33:43;10.07;;;6.18;;
23117;SDS011;11728;50.624;6.014;2023-06-10T01:39:06;7.30;;;6.15;;
23117;SDS011;11728;50.624;6.014;2023-06-10T01:44:28;11.10;;;6.47;;
23117;SDS011;11728;50.624;6.014;2023-06-10T01:49:49;11.73;;;6.38;;
23117;SDS011;11728;50.624;6.014;2023-06-10T01:55:10;9.60;;;6.57;;
23117;SDS011;11728;50.624;6.014;2023-06-10T02:00:30;11.32;;;6.95;;
23117;SDS011;11728;50.624;6.014;2023-06-10T02:05:52;7.88;;;6.43;;
23117;SDS011;11728;50.624;6.014;2023-06-10T02:11:12;11.70;;;6.60;;
23117;SDS011;11728;50.624;6.014;2023-06-10T02:16:33;8.85;;;6.45;;
23117;SDS011;11728;50.624;6.014;2023-06-10T02:21:54;8.68;;;6.55;;
23117;SDS011;11728;50.624;6.014;2023-06-10T02:27:15;9.68;;;6.47;;
23117;SDS011;11728;50.624;6.014;2023-06-10T02:32:37;7.70;;;5.97;;
23117;SDS011;11728;50.624;6.014;2023-06-10T02:37:57;10.23;;;5.93;;
23117;SDS011;11728;50.624;6.014;2023-06-10T02:43:18;8.55;;;6.20;;
23117;SDS011;11728;50.624;6.014;2023-06-10T02:48:42;8.32;;;6.30;;
23117;SDS011;11728;50.624;6.014;2023-06-10T02:54:06;8.77;;;6.47;;
23117;SDS011;11728;50.624;6.014;2023-06-10T02:59:27;8.60;;;6.07;;
23117;SDS011;11728;50.624;6.014;2023-06-10T03:04:49;8.60;;;6.07;;
23117;SDS011;11728;50.624;6.014;2023-06-10T03:10:11;8.43;;;5.57;;
23117;SDS011;11728;50.624;6.014;2023-06-10T03:15:31;12.27;;;6.20;;
23117;SDS011;11728;50.624;6.014;2023-06-10T03:20:54;11.05;;;6.28;;
23117;SDS011;11728;50.624;6.014;2023-06-10T03:26:15;9.60;;;6.32;;
23117;SDS011;11728;50.624;6.014;2023-06-10T03:31:36;10.55;;;6.20;;
23117;SDS011;11728;50.624;6.014;2023-06-10T03:36:59;12.60;;;6.05;;
23117;SDS011;11728;50.624;6.014;2023-06-10T03:42:19;9.63;;;5.82;;
23117;SDS011;11728;50.624;6.014;2023-06-10T03:47:40;8.52;;;5.70;;
23117;SDS011;11728;50.624;6.014;2023-06-10T03:53:01;7.72;;;6.00;;
23117;SDS011;11728;50.624;6.014;2023-06-10T03:58:22;8.93;;;5.75;;
23117;SDS011;11728;50.624;6.014;2023-06-10T04:03:42;9.70;;;6.10;;
23117;SDS011;11728;50.624;6.014;2023-06-10T04:09:04;9.15;;;6.30;;
23117;SDS011;11728;50.624;6.014;2023-06-10T04:14:25;8.32;;;5.60;;
23117;SDS011;11728;50.624;6.014;2023-06-10T04:19:45;8.68;;;5.93;;
23117;SDS011;11728;50.624;6.014;2023-06-10T04:25:08;8.68;;;5.53;;
23117;SDS011;11728;50.624;6.014;2023-06-10T04:30:29;8.00;;;5.43;;
23117;SDS011;11728;50.624;6.014;2023-06-10T04:35:51;8.77;;;5.80;;
23117;SDS011;11728;50.624;6.014;2023-06-10T04:41:12;9.77;;;5.75;;
23117;SDS011;11728;50.624;6.014;2023-06-10T04:46:33;10.75;;;5.75;;
23117;SDS011;11728;50.624;6.014;2023-06-10T04:51:54;8.60;;;5.55;;
23117;SDS011;11728;50.624;6.014;2023-06-10T04:57:14;9.95;;;5.70;;
23117;SDS011;11728;50.624;6.014;2023-06-10T05:02:35;8.15;;;5.30;;
23117;SDS011;11728;50.624;6.014;2023-06-10T05:07:56;6.22;;;5.55;;
23117;SDS011;11728;50.624;6.014;2023-06-10T05:13:17;8.32;;;6.00;;
23117;SDS011;11728;50.624;6.014;2023-06-10T05:18:38;8.32;;;5.78;;
23117;SDS011;11728;50.624;6.014;2023-06-10T05:23:59;9.27;;;5.95;;
23117;SDS011;11728;50.624;6.014;2023-06-10T05:29:19;6.38;;;4.88;;
23117;SDS011;11728;50.624;6.014;2023-06-10T05:34:40;8.50;;;5.72;;
23117;SDS011;11728;50.624;6.014;2023-06-10T05:40:01;6.70;;;5.35;;
23117;SDS011;11728;50.624;6.014;2023-06-10T05:45:22;8.65;;;5.90;;
23117;SDS011;11728;50.624;6.014;2023-06-10T05:50:42;9.77;;;5.80;;
23117;SDS011;11728;50.624;6.014;2023-06-10T05:56:08;6.65;;;5.50;;
23117;SDS011;11728;50.624;6.014;2023-06-10T06:01:29;8.55;;;5.20;;
23117;SDS011;11728;50.624;6.014;2023-06-10T06:06:50;6.70;;;5.60;;
23117;SDS011;11728;50.624;6.014;2023-06-10T06:12:10;7.13;;;5.47;;
23117;SDS011;11728;50.624;6.014;2023-06-10T06:17:31;6.55;;;4.85;;
23117;SDS011;11728;50.624;6.014;2023-06-10T06:22:52;6.90;;;5.43;;
23117;SDS011;11728;50.624;6.014;2023-06-10T06:28:13;8.07;;;5.40;;
23117;SDS011;11728;50.624;6.014;2023-06-10T06:33:33;8.98;;;5.25;;
23117;SDS011;11728;50.624;6.014;2023-06-10T06:38:54;6.75;;;5.18;;
23117;SDS011;11728;50.624;6.014;2023-06-10T06:44:15;9.40;;;5.55;;
23117;SDS011;11728;50.624;6.014;2023-06-10T06:49:36;6.30;;;5.35;;
23117;SDS011;11728;50.624;6.014;2023-06-10T06:54:57;8.65;;;5.38;;
23117;SDS011;11728;50.624;6.014;2023-06-10T07:00:17;5.93;;;5.30;;
23117;SDS011;11728;50.624;6.014;2023-06-10T07:05:38;9.30;;;5.30;;
23117;SDS011;11728;50.624;6.014;2023-06-10T07:10:59;8.32;;;5.22;;
23117;SDS011;11728;50.624;6.014;2023-06-10T07:16:20;7.10;;;5.60;;
23117;SDS011;11728;50.624;6.014;2023-06-10T07:21:41;7.03;;;5.18;;
23117;SDS011;11728;50.624;6.014;2023-06-10T07:27:02;7.03;;;5.50;;
23117;SDS011;11728;50.624;6.014;2023-06-10T07:32:23;10.50;;;5.28;;
23117;SDS011;11728;50.624;6.014;2023-06-10T07:37:44;8.32;;;4.85;;
23117;SDS011;11728;50.624;6.014;2023-06-10T07:43:04;6.97;;;4.93;;
23117;SDS011;11728;50.624;6.014;2023-06-10T07:48:25;5.90;;;4.80;;
23117;SDS011;11728;50.624;6.014;2023-06-10T07:53:46;5.72;;;4.80;;
23117;SDS011;11728;50.624;6.014;2023-06-10T07:59:07;6.25;;;4.60;;
23117;SDS011;11728;50.624;6.014;2023-06-10T08:04:28;6.65;;;4.72;;
23117;SDS011;11728;50.624;6.014;2023-06-10T08:09:51;5.82;;;4.93;;
23117;SDS011;11728;50.624;6.014;2023-06-10T08:15:12;6.25;;;4.97;;
23117;SDS011;11728;50.624;6.014;2023-06-10T08:20:32;10.32;;;5.30;;
23117;SDS011;11728;50.624;6.014;2023-06-10T08:25:53;9.95;;;5.00;;
23117;SDS011;11728;50.624;6.014;2023-06-10T08:31:14;8.65;;;5.03;;
23117;SDS011;11728;50.624;6.014;2023-06-10T08:36:34;5.65;;;4.97;;
23117;SDS011;11728;50.624;6.014;2023-06-10T08:42:00;6.32;;;4.80;;
23117;SDS011;11728;50.624;6.014;2023-06-10T08:47:22;8.57;;;5.05;;
23117;SDS011;11728;50.624;6.014;2023-06-10T08:52:44;5.65;;;4.50;;
23117;SDS011;11728;50.624;6.014;2023-06-10T08:58:08;7.65;;;4.45;;
23117;SDS011;11728;50.624;6.014;2023-06-10T09:03:30;7.15;;;4.18;;
23117;SDS011;11728;50.624;6.014;2023-06-10T09:08:51;7.80;;;4.55;;
23117;SDS011;11728;50.624;6.014;2023-06-10T09:14:12;9.65;;;4.80;;
23117;SDS011;11728;50.624;6.014;2023-06-10T09:19:34;8.50;;;4.35;;
23117;SDS011;11728;50.624;6.014;2023-06-10T09:25:05;6.95;;;5.03;;
23117;SDS011;11728;50.624;6.014;2023-06-10T09:30:30;5.78;;;4.05;;
23117;SDS011;11728;50.624;6.014;2023-06-10T09:35:52;6.57;;;4.50;;
23117;SDS011;11728;50.624;6.014;2023-06-10T09:41:14;6.47;;;4.53;;
23117;SDS011;11728;50.624;6.014;2023-06-10T09:46:35;8.55;;;5.10;;
23117;SDS011;11728;50.624;6.014;2023-06-10T09:51:56;6.07;;;4.53;;
23117;SDS011;11728;50.624;6.014;2023-06-10T09:57:17;7.13;;;4.90;;
23117;SDS011;11728;50.624;6.014;2023-06-10T10:02:45;5.40;;;4.38;;
23117;SDS011;11728;50.624;6.014;2023-06-10T10:08:11;7.60;;;4.32;;
23117;SDS011;11728;50.624;6.014;2023-06-10T10:13:35;7.53;;;4.60;;
23117;SDS011;11728;50.624;6.014;2023-06-10T10:18:58;7.80;;;4.70;;
23117;SDS011;11728;50.624;6.014;2023-06-10T10:24:22;8.55;;;4.68;;
23117;SDS011;11728;50.624;6.014;2023-06-10T10:29:47;7.97;;;4.78;;
23117;SDS011;11728;50.624;6.014;2023-06-10T10:35:12;7.00;;;4.53;;
23117;SDS011;11728;50.624;6.014;2023-06-10T10:40:38;7.75;;;4.80;;
23117;SDS011;11728;50.624;6.014;2023-06-10T10:46:03;5.60;;;4.72;;
23117;SDS011;11728;50.624;6.014;2023-06-10T10:51:33;7.25;;;4.78;;
23117;SDS011;11728;50.624;6.014;2023-06-10T11:02:42;6.93;;;4.70;;
23117;SDS011;11728;50.624;6.014;2023-06-10T11:08:07;9.07;;;4.63;;
23117;SDS011;11728;50.624;6.014;2023-06-10T11:13:29;9.02;;;4.68;;
23117;SDS011;11728;50.624;6.014;2023-06-10T11:18:49;7.90;;;4.68;;
23117;SDS011;11728;50.624;6.014;2023-06-10T11:24:14;6.47;;;5.03;;
23117;SDS011;11728;50.624;6.014;2023-06-10T11:29:34;7.30;;;4.28;;
23117;SDS011;11728;50.624;6.014;2023-06-10T11:34:55;4.95;;;4.40;;
23117;SDS011;11728;50.624;6.014;2023-06-10T11:40:16;5.63;;;4.53;;
23117;SDS011;11728;50.624;6.014;2023-06-10T11:45:37;5.20;;;4.70;;
23117;SDS011;11728;50.624;6.014;2023-06-10T11:50:58;6.93;;;4.88;;
23117;SDS011;11728;50.624;6.014;2023-06-10T12:01:44;11.50;;;4.68;;
23117;SDS011;11728;50.624;6.014;2023-06-10T12:07:05;7.47;;;5.30;;
23117;SDS011;11728;50.624;6.014;2023-06-10T12:12:26;6.50;;;5.03;;
23117;SDS011;11728;50.624;6.014;2023-06-10T12:17:47;8.32;;;4.90;;
23117;SDS011;11728;50.624;6.014;2023-06-10T12:23:08;6.18;;;4.95;;
23117;SDS011;11728;50.624;6.014;2023-06-10T12:28:30;7.88;;;4.55;;
23117;SDS011;11728;50.624;6.014;2023-06-10T12:34:01;6.97;;;4.70;;
23117;SDS011;11728;50.624;6.014;2023-06-10T12:39:28;6.88;;;4.63;;
23117;SDS011;11728;50.624;6.014;2023-06-10T12:44:52;8.00;;;4.90;;
23117;SDS011;11728;50.624;6.014;2023-06-10T12:50:14;6.13;;;4.97;;
23117;SDS011;11728;50.624;6.014;2023-06-10T12:55:35;8.32;;;4.35;;
23117;SDS011;11728;50.624;6.014;2023-06-10T13:00:55;7.25;;;4.50;;
23117;SDS011;11728;50.624;6.014;2023-06-10T13:06:17;8.70;;;4.50;;
23117;SDS011;11728;50.624;6.014;2023-06-10T13:11:38;5.90;;;4.05;;
23117;SDS011;11728;50.624;6.014;2023-06-10T13:16:59;7.15;;;4.50;;
23117;SDS011;11728;50.624;6.014;2023-06-10T13:22:20;5.13;;;4.28;;
23117;SDS011;11728;50.624;6.014;2023-06-10T13:27:42;8.20;;;4.13;;
23117;SDS011;11728;50.624;6.014;2023-06-10T13:33:02;6.20;;;4.05;;
23117;SDS011;11728;50.624;6.014;2023-06-10T13:38:23;7.20;;;4.20;;
23117;SDS011;11728;50.624;6.014;2023-06-10T13:43:44;6.00;;;4.50;;
23117;SDS011;11728;50.624;6.014;2023-06-10T13:49:04;5.68;;;4.03;;
23117;SDS011;11728;50.624;6.014;2023-06-10T13:54:25;6.28;;;4.30;;
23117;SDS011;11728;50.624;6.014;2023-06-10T13:59:47;8.98;;;4.60;;
23117;SDS011;11728;50.624;6.014;2023-06-10T14:05:08;8.35;;;4.55;;
23117;SDS011;11728;50.624;6.014;2023-06-10T14:10:29;6.47;;;4.72;;
23117;SDS011;11728;50.624;6.014;2023-06-10T14:15:50;7.15;;;4.72;;
23117;SDS011;11728;50.624;6.014;2023-06-10T14:21:10;8.43;;;5.53;;
23117;SDS011;11728;50.624;6.014;2023-06-10T14:26:32;6.78;;;4.63;;
23117;SDS011;11728;50.624;6.014;2023-06-10T14:31:53;8.23;;;5.28;;
23117;SDS011;11728;50.624;6.014;2023-06-10T14:37:14;7.93;;;5.20;;
23117;SDS011;11728;50.624;6.014;2023-06-10T14:42:34;12.00;;;4.85;;
23117;SDS011;11728;50.624;6.014;2023-06-10T14:47:55;7.13;;;4.40;;
23117;SDS011;11728;50.624;6.014;2023-06-10T14:53:16;6.25;;;4.63;;
23117;SDS011;11728;50.624;6.014;2023-06-10T14:58:38;8.15;;;4.25;;
23117;SDS011;11728;50.624;6.014;2023-06-10T15:03:58;5.40;;;4.03;;
23117;SDS011;11728;50.624;6.014;2023-06-10T15:09:19;7.85;;;3.88;;
23117;SDS011;11728;50.624;6.014;2023-06-10T15:14:40;6.00;;;3.72;;
23117;SDS011;11728;50.624;6.014;2023-06-10T15:20:01;5.28;;;4.47;;
23117;SDS011;11728;50.624;6.014;2023-06-10T15:25:23;8.32;;;3.92;;
23117;SDS011;11728;50.624;6.014;2023-06-10T15:30:43;5.05;;;3.42;;
23117;SDS011;11728;50.624;6.014;2023-06-10T15:36:04;6.55;;;4.13;;
23117;SDS011;11728;50.624;6.014;2023-06-10T15:41:26;6.90;;;4.47;;
23117;SDS011;11728;50.624;6.014;2023-06-10T15:46:47;6.72;;;3.72;;
23117;SDS011;11728;50.624;6.014;2023-06-10T15:52:07;8.80;;;4.13;;
23117;SDS011;11728;50.624;6.014;2023-06-10T15:57:28;8.77;;;4.90;;
23117;SDS011;11728;50.624;6.014;2023-06-10T16:02:49;10.77;;;4.43;;
23117;SDS011;11728;50.624;6.014;2023-06-10T16:08:10;7.82;;;4.18;;
23117;SDS011;11728;50.624;6.014;2023-06-10T16:13:30;9.93;;;4.60;;
23117;SDS011;11728;50.624;6.014;2023-06-10T16:18:51;8.20;;;3.88;;
23117;SDS011;11728;50.624;6.014;2023-06-10T16:24:13;6.30;;;4.10;;
23117;SDS011;11728;50.624;6.014;2023-06-10T16:29:35;7.40;;;3.70;;
23117;SDS011;11728;50.624;6.014;2023-06-10T16:34:56;6.30;;;3.72;;
23117;SDS011;11728;50.624;6.014;2023-06-10T16:40:17;5.55;;;3.30;;
23117;SDS011;11728;50.624;6.014;2023-06-10T16:45:38;9.02;;;3.92;;
23117;SDS011;11728;50.624;6.014;2023-06-10T16:50:59;6.20;;;4.30;;
23117;SDS011;11728;50.624;6.014;2023-06-10T16:56:19;5.75;;;3.65;;
23117;SDS011;11728;50.624;6.014;2023-06-10T17:01:40;10.63;;;3.90;;
23117;SDS011;11728;50.624;6.014;2023-06-10T17:07:01;6.00;;;4.13;;
23117;SDS011;11728;50.624;6.014;2023-06-10T17:12:22;7.95;;;4.38;;
23117;SDS011;11728;50.624;6.014;2023-06-10T17:17:43;10.40;;;4.15;;
23117;SDS011;11728;50.624;6.014;2023-06-10T17:23:04;8.73;;;6.35;;
23117;SDS011;11728;50.624;6.014;2023-06-10T17:28:25;9.93;;;5.80;;
23117;SDS011;11728;50.624;6.014;2023-06-10T17:33:45;8.85;;;5.50;;
23117;SDS011;11728;50.624;6.014;2023-06-10T17:39:06;9.00;;;4.28;;
23117;SDS011;11728;50.624;6.014;2023-06-10T17:44:27;6.78;;;4.45;;
23117;SDS011;11728;50.624;6.014;2023-06-10T17:49:48;5.22;;;4.13;;
23117;SDS011;11728;50.624;6.014;2023-06-10T17:55:09;7.85;;;4.50;;
23117;SDS011;11728;50.624;6.014;2023-06-10T18:00:30;13.63;;;4.72;;
23117;SDS011;11728;50.624;6.014;2023-06-10T18:05:54;6.72;;;4.20;;
23117;SDS011;11728;50.624;6.014;2023-06-10T18:11:15;4.75;;;3.90;;
23117;SDS011;11728;50.624;6.014;2023-06-10T18:16:36;7.38;;;3.85;;
23117;SDS011;11728;50.624;6.014;2023-06-10T18:21:56;6.80;;;4.40;;
23117;SDS011;11728;50.624;6.014;2023-06-10T18:27:18;9.75;;;4.38;;
23117;SDS011;11728;50.624;6.014;2023-06-10T18:32:39;6.00;;;4.15;;
23117;SDS011;11728;50.624;6.014;2023-06-10T18:38:00;6.85;;;4.20;;
23117;SDS011;11728;50.624;6.014;2023-06-10T18:43:20;6.63;;;4.22;;
23117;SDS011;11728;50.624;6.014;2023-06-10T18:48:41;6.45;;;4.25;;
23117;SDS011;11728;50.624;6.014;2023-06-10T18:54:03;7.75;;;4.50;;
23117;SDS011;11728;50.624;6.014;2023-06-10T18:59:24;5.22;;;4.35;;
23117;SDS011;11728;50.624;6.014;2023-06-10T19:04:45;8.32;;;4.53;;
23117;SDS011;11728;50.624;6.014;2023-06-10T19:10:06;8.88;;;5.13;;
23117;SDS011;11728;50.624;6.014;2023-06-10T19:15:27;10.50;;;5.07;;
23117;SDS011;11728;50.624;6.014;2023-06-10T19:20:48;7.30;;;4.60;;
23117;SDS011;11728;50.624;6.014;2023-06-10T19:26:08;7.07;;;4.30;;
23117;SDS011;11728;50.624;6.014;2023-06-10T19:31:29;6.10;;;4.55;;
23117;SDS011;11728;50.624;6.014;2023-06-10T19:36:50;7.93;;;4.97;;
23117;SDS011;11728;50.624;6.014;2023-06-10T19:42:11;6.35;;;4.72;;
23117;SDS011;11728;50.624;6.014;2023-06-10T19:47:31;10.43;;;4.38;;
23117;SDS011;11728;50.624;6.014;2023-06-10T19:52:52;7.10;;;4.05;;
23117;SDS011;11728;50.624;6.014;2023-06-10T19:58:13;6.40;;;4.53;;
23117;SDS011;11728;50.624;6.014;2023-06-10T20:03:33;5.80;;;4.25;;
23117;SDS011;11728;50.624;6.014;2023-06-10T20:08:54;6.82;;;4.25;;
23117;SDS011;11728;50.624;6.014;2023-06-10T20:14:15;6.60;;;4.45;;
23117;SDS011;11728;50.624;6.014;2023-06-10T20:19:36;8.45;;;5.07;;
23117;SDS011;11728;50.624;6.014;2023-06-10T20:24:57;7.25;;;4.93;;
23117;SDS011;11728;50.624;6.014;2023-06-10T20:30:17;5.30;;;4.57;;
23117;SDS011;11728;50.624;6.014;2023-06-10T20:35:39;5.15;;;4.60;;
23117;SDS011;11728;50.624;6.014;2023-06-10T20:41:00;7.72;;;4.20;;
23117;SDS011;11728;50.624;6.014;2023-06-10T20:46:20;6.57;;;4.75;;
23117;SDS011;11728;50.624;6.014;2023-06-10T20:51:41;10.60;;;5.05;;
23117;SDS011;11728;50.624;6.014;2023-06-10T20:57:02;5.70;;;4.72;;
23117;SDS011;11728;50.624;6.014;2023-06-10T21:02:23;6.30;;;4.70;;
23117;SDS011;11728;50.624;6.014;2023-06-10T21:07:44;8.18;;;5.05;;
23117;SDS011;11728;50.624;6.014;2023-06-10T21:13:06;6.68;;;4.80;;
23117;SDS011;11728;50.624;6.014;2023-06-10T21:18:27;7.40;;;4.82;;
23117;SDS011;11728;50.624;6.014;2023-06-10T21:23:48;9.40;;;5.28;;
23117;SDS011;11728;50.624;6.014;2023-06-10T21:29:09;8.77;;;4.78;;
23117;SDS011;11728;50.624;6.014;2023-06-10T21:34:30;9.10;;;5.40;;
23117;SDS011;11728;50.624;6.014;2023-06-10T21:39:50;5.47;;;4.97;;
23117;SDS011;11728;50.624;6.014;2023-06-10T21:45:11;7.00;;;5.03;;
23117;SDS011;11728;50.624;6.014;2023-06-10T21:50:32;7.50;;;4.97;;
23117;SDS011;11728;50.624;6.014;2023-06-10T21:55:53;9.73;;;5.07;;
23117;SDS011;11728;50.624;6.014;2023-06-10T22:01:14;11.63;;;5.00;;
23117;SDS011;11728;50.624;6.014;2023-06-10T22:06:34;6.28;;;5.18;;
23117;SDS011;11728;50.624;6.014;2023-06-10T22:11:56;8.38;;;5.15;;
23117;SDS011;11728;50.624;6.014;2023-06-10T22:17:17;7.35;;;5.10;;
23117;SDS011;11728;50.624;6.014;2023-06-10T22:22:38;7.10;;;5.30;;
23117;SDS011;11728;50.624;6.014;2023-06-10T22:27:59;8.20;;;4.93;;
23117;SDS011;11728;50.624;6.014;2023-06-10T22:33:21;5.85;;;4.68;;
23117;SDS011;11728;50.624;6.014;2023-06-10T22:38:42;5.68;;;4.68;;
23117;SDS011;11728;50.624;6.014;2023-06-10T22:44:03;6.30;;;4.75;;
23117;SDS011;11728;50.624;6.014;2023-06-10T22:49:23;5.90;;;4.32;;
23117;SDS011;11728;50.624;6.014;2023-06-10T22:54:45;6.35;;;4.95;;
23117;SDS011;11728;50.624;6.014;2023-06-10T23:00:06;6.40;;;5.13;;
23117;SDS011;11728;50.624;6.014;2023-06-10T23:05:28;7.78;;;5.13;;
23117;SDS011;11728;50.624;6.014;2023-06-10T23:10:48;6.68;;;5.45;;
23117;SDS011;11728;50.624;6.014;2023-06-10T23:16:09;8.82;;;5.28;;
23117;SDS011;11728;50.624;6.014;2023-06-10T23:21:30;10.95;;;5.93;;
23117;SDS011;11728;50.624;6.014;2023-06-10T23:26:57;6.25;;;4.85;;
23117;SDS011;11728;50.624;6.014;2023-06-10T23:32:19;7.93;;;5.40;;
23117;SDS011;11728;50.624;6.014;2023-06-10T23:37:40;6.57;;;5.55;;
23117;SDS011;11728;50.624;6.014;2023-06-10T23:43:01;6.15;;;5.20;;
23117;SDS011;11728;50.624;6.014;2023-06-10T23:48:22;7.18;;;5.60;;
23117;SDS011;11728;50.624;6.014;2023-06-10T23:53:42;7.78;;;5.40;;
23117;SDS011;11728;50.624;6.014;2023-06-10T23:59:03;5.55;;;4.93;;
